Time;durP1;ratioP1;P1;durP2;ratioP2;P2;SDS_P1;SDS_P2;PMS_P1;PMS_P2;Temp;Humidity;BMP_temperature;BMP_pressure;BME280_temperature;BME280_humidity;BME280_pressure;Samples;Min_cycle;Max_cycle;Signal;HPM_P1;HPM_P2
2021/11/09 00:00:32;;;;;;;22.33;15.32;;;;;;;;;;2086134;28;20209;-53
2021/11/09 00:01:42;;;;;;;21.48;15.18;;;;;;;;;;2087970;28;20305;-53
2021/11/09 00:02:44;;;;;;;24.25;14.38;;;;;;;;;;2092051;28;20231;-54
2021/11/09 00:03:49;;;;;;;21.45;13.88;;;;;;;;;;2088711;28;20263;-54
2021/11/09 00:04:54;;;;;;;21.02;13.77;;;;;;;;;;2081753;28;20187;-53
2021/11/09 00:06:01;;;;;;;31.23;18.67;;;;;;;;;;2088349;28;20179;-55
2021/11/09 00:07:09;;;;;;;26.15;17.40;;;;;;;;;;2086991;28;20242;-52
2021/11/09 00:08:14;;;;;;;23.70;16.58;;;;;;;;;;2082393;28;20168;-54
2021/11/09 00:09:18;;;;;;;28.45;16.25;;;;;;;;;;2087532;28;20680;-54
2021/11/09 00:10:19;;;;;;;29.02;15.90;;;;;;;;;;2089865;28;20664;-55
2021/11/09 00:11:20;;;;;;;24.55;15.55;;;;;;;;;;2089328;28;20258;-54
2021/11/09 00:12:20;;;;;;;26.05;16.15;;;;;;;;;;2089217;28;20242;-54
2021/11/09 00:13:21;;;;;;;28.83;15.73;;;;;;;;;;2087148;28;20240;-56
2021/11/09 00:14:21;;;;;;;27.77;16.67;;;;;;;;;;2079968;28;20278;-53
2021/11/09 00:15:22;;;;;;;26.27;15.80;;;;;;;;;;2082037;28;20243;-56
2021/11/09 00:16:23;;;;;;;28.95;15.10;;;;;;;;;;2085630;28;20167;-55
2021/11/09 00:17:23;;;;;;;24.15;14.73;;;;;;;;;;2090557;28;20597;-54
2021/11/09 00:18:23;;;;;;;30.70;15.45;;;;;;;;;;2091018;28;20258;-53
2021/11/09 00:19:24;;;;;;;24.27;15.30;;;;;;;;;;2083596;28;20250;-52
2021/11/09 00:20:25;;;;;;;26.50;14.93;;;;;;;;;;2086957;28;20225;-52
2021/11/09 00:21:25;;;;;;;25.52;14.35;;;;;;;;;;2087435;28;20198;-55
2021/11/09 00:22:26;;;;;;;27.50;15.20;;;;;;;;;;2087494;28;20649;-55
2021/11/09 00:23:27;;;;;;;19.38;14.43;;;;;;;;;;2090932;28;20211;-54
2021/11/09 00:24:27;;;;;;;24.33;14.23;;;;;;;;;;2088781;28;20226;-55
2021/11/09 00:25:28;;;;;;;22.20;14.73;;;;;;;;;;2087176;28;20210;-55
2021/11/09 00:26:28;;;;;;;24.75;15.25;;;;;;;;;;2088057;28;20175;-53
2021/11/09 00:27:28;;;;;;;22.55;15.23;;;;;;;;;;2088678;28;20270;-54
2021/11/09 00:28:28;;;;;;;23.60;14.98;;;;;;;;;;2090829;28;20182;-52
2021/11/09 00:29:29;;;;;;;22.33;14.27;;;;;;;;;;2089599;28;20211;-52
2021/11/09 00:30:30;;;;;;;25.73;15.30;;;;;;;;;;2089897;28;20343;-58
2021/11/09 00:31:30;;;;;;;24.05;15.27;;;;;;;;;;2090454;28;20178;-56
2021/11/09 00:32:30;;;;;;;23.73;15.63;;;;;;;;;;2087220;28;20271;-53
2021/11/09 00:33:31;;;;;;;22.95;14.50;;;;;;;;;;2083705;28;20648;-52
2021/11/09 00:34:31;;;;;;;23.10;15.43;;;;;;;;;;2088774;28;20597;-52
2021/11/09 00:35:32;;;;;;;25.80;15.13;;;;;;;;;;2091671;28;20294;-54
2021/11/09 00:36:32;;;;;;;26.58;14.80;;;;;;;;;;2089212;28;20168;-53
2021/11/09 00:37:32;;;;;;;23.65;15.40;;;;;;;;;;2085454;28;20267;-52
2021/11/09 00:38:33;;;;;;;26.92;14.52;;;;;;;;;;2087548;28;20201;-53
2021/11/09 00:39:34;;;;;;;27.88;16.73;;;;;;;;;;2089189;28;20183;-52
2021/11/09 00:40:35;;;;;;;28.58;16.38;;;;;;;;;;2089521;28;20564;-55
2021/11/09 00:41:35;;;;;;;25.92;16.30;;;;;;;;;;2089021;28;20264;-56
2021/11/09 00:42:37;;;;;;;24.17;15.23;;;;;;;;;;2088985;28;20172;-52
2021/11/09 00:43:37;;;;;;;25.42;15.32;;;;;;;;;;2089315;28;20255;-52
2021/11/09 00:44:37;;;;;;;24.60;15.10;;;;;;;;;;2090290;28;20257;-54
2021/11/09 00:45:38;;;;;;;27.58;15.30;;;;;;;;;;2089085;28;20325;-56
2021/11/09 00:46:38;;;;;;;25.05;16.17;;;;;;;;;;2089264;28;20184;-51
2021/11/09 00:47:39;;;;;;;30.23;16.55;;;;;;;;;;2089157;28;20237;-56
2021/11/09 00:48:39;;;;;;;29.85;17.20;;;;;;;;;;2089661;28;20182;-57
2021/11/09 00:49:39;;;;;;;22.38;15.43;;;;;;;;;;2090489;28;20183;-56
2021/11/09 00:50:40;;;;;;;23.05;15.55;;;;;;;;;;2089498;28;20225;-55
2021/11/09 00:51:40;;;;;;;26.75;15.13;;;;;;;;;;2089443;28;20191;-55
2021/11/09 00:52:41;;;;;;;22.40;14.93;;;;;;;;;;2090160;28;20263;-53
2021/11/09 00:53:42;;;;;;;21.27;14.95;;;;;;;;;;2073226;28;20188;-55
2021/11/09 00:54:42;;;;;;;26.13;15.73;;;;;;;;;;2081435;28;20634;-53
2021/11/09 00:55:44;;;;;;;24.30;14.55;;;;;;;;;;2083072;28;20661;-54
2021/11/09 00:56:45;;;;;;;27.27;14.18;;;;;;;;;;2088721;28;20258;-56
2021/11/09 00:57:46;;;;;;;21.48;14.18;;;;;;;;;;2073463;28;20840;-53
2021/11/09 00:58:46;;;;;;;24.60;14.02;;;;;;;;;;2088281;28;20265;-55
2021/11/09 00:59:46;;;;;;;31.05;16.05;;;;;;;;;;2090859;28;20697;-55
2021/11/09 01:00:46;;;;;;;24.90;14.35;;;;;;;;;;2089179;28;20183;-54
2021/11/09 01:01:47;;;;;;;21.30;14.70;;;;;;;;;;2090419;28;20203;-53
2021/11/09 01:02:49;;;;;;;21.23;14.60;;;;;;;;;;2089020;28;20254;-54
2021/11/09 01:03:49;;;;;;;21.67;14.82;;;;;;;;;;2082126;28;20234;-51
2021/11/09 01:04:49;;;;;;;23.55;16.00;;;;;;;;;;2089577;28;20167;-52
2021/11/09 01:05:50;;;;;;;23.33;14.98;;;;;;;;;;2090343;28;20163;-55
2021/11/09 01:06:51;;;;;;;22.05;15.23;;;;;;;;;;2088855;28;20215;-53
2021/11/09 01:07:55;;;;;;;23.10;15.25;;;;;;;;;;2090350;28;20647;-53
2021/11/09 01:08:55;;;;;;;22.20;15.38;;;;;;;;;;2089788;28;20237;-55
2021/11/09 01:09:55;;;;;;;24.15;16.30;;;;;;;;;;2083633;28;20168;-52
2021/11/09 01:10:57;;;;;;;24.38;14.52;;;;;;;;;;2088935;28;20176;-54
2021/11/09 01:11:57;;;;;;;29.00;16.75;;;;;;;;;;2086233;28;20259;-54
2021/11/09 01:12:57;;;;;;;26.73;16.98;;;;;;;;;;2089598;28;20242;-53
2021/11/09 01:13:58;;;;;;;37.42;18.88;;;;;;;;;;2090140;28;20785;-57
2021/11/09 01:14:58;;;;;;;24.67;18.08;;;;;;;;;;2089521;28;20609;-55
2021/11/09 01:15:59;;;;;;;25.98;17.63;;;;;;;;;;2090833;28;20263;-53
2021/11/09 01:16:59;;;;;;;21.30;16.52;;;;;;;;;;2085267;28;20621;-55
2021/11/09 01:18:00;;;;;;;27.10;17.27;;;;;;;;;;2090855;28;20162;-53
2021/11/09 01:19:04;;;;;;;26.40;15.95;;;;;;;;;;2088469;28;20192;-54
2021/11/09 01:20:06;;;;;;;27.10;16.60;;;;;;;;;;2089118;28;20839;-54
2021/11/09 01:21:06;;;;;;;27.25;17.15;;;;;;;;;;2084292;28;20196;-53
2021/11/09 01:22:07;;;;;;;28.85;16.05;;;;;;;;;;2089763;28;20180;-55
2021/11/09 01:23:07;;;;;;;28.65;16.40;;;;;;;;;;2090517;28;20175;-57
2021/11/09 01:24:09;;;;;;;30.90;17.63;;;;;;;;;;2083588;28;20642;-54
2021/11/09 01:25:09;;;;;;;30.27;16.38;;;;;;;;;;2090362;28;20241;-56
2021/11/09 01:26:10;;;;;;;29.75;17.52;;;;;;;;;;2083429;28;20636;-55
2021/11/09 01:27:10;;;;;;;25.98;16.38;;;;;;;;;;2085379;28;20188;-53
2021/11/09 01:28:11;;;;;;;21.85;16.48;;;;;;;;;;2083853;28;20180;-54
2021/11/09 01:29:12;;;;;;;23.30;16.85;;;;;;;;;;2089473;28;20195;-55
2021/11/09 01:30:14;;;;;;;24.98;17.40;;;;;;;;;;2088360;28;20329;-52
2021/11/09 01:31:15;;;;;;;28.58;17.80;;;;;;;;;;2087980;28;20164;-55
2021/11/09 01:32:15;;;;;;;27.20;17.40;;;;;;;;;;2084720;28;20171;-52
2021/11/09 01:33:15;;;;;;;26.67;18.95;;;;;;;;;;2087531;28;20176;-56
2021/11/09 01:34:16;;;;;;;29.35;18.80;;;;;;;;;;2082390;28;20196;-51
2021/11/09 01:35:17;;;;;;;31.90;18.48;;;;;;;;;;2086405;28;20183;-54
2021/11/09 01:36:17;;;;;;;29.35;17.55;;;;;;;;;;2083753;28;20173;-53
2021/11/09 01:37:17;;;;;;;36.25;18.65;;;;;;;;;;2082638;28;20187;-52
2021/11/09 01:38:18;;;;;;;26.73;18.17;;;;;;;;;;2085632;28;20645;-57
2021/11/09 01:39:19;;;;;;;32.25;19.45;;;;;;;;;;2087131;28;20187;-54
2021/11/09 01:40:20;;;;;;;29.77;19.38;;;;;;;;;;2089092;28;20179;-54
2021/11/09 01:41:21;;;;;;;28.95;19.17;;;;;;;;;;2090489;28;20184;-53
2021/11/09 01:42:22;;;;;;;28.10;18.25;;;;;;;;;;2090383;28;20179;-53
2021/11/09 01:43:23;;;;;;;31.38;17.98;;;;;;;;;;2088797;28;20190;-54
2021/11/09 01:44:23;;;;;;;35.50;19.55;;;;;;;;;;2087498;28;20199;-55
2021/11/09 01:45:24;;;;;;;27.42;18.00;;;;;;;;;;2088133;28;20191;-55
2021/11/09 01:46:24;;;;;;;30.85;18.00;;;;;;;;;;2089930;28;20187;-57
2021/11/09 01:47:25;;;;;;;26.63;19.40;;;;;;;;;;2091117;28;20176;-56
2021/11/09 01:48:25;;;;;;;27.20;20.25;;;;;;;;;;2086518;28;20258;-57
2021/11/09 01:49:26;;;;;;;36.58;20.23;;;;;;;;;;2089221;28;20203;-52
2021/11/09 01:50:29;;;;;;;30.40;20.55;;;;;;;;;;2084852;28;20172;-54
2021/11/09 01:51:29;;;;;;;30.90;20.33;;;;;;;;;;2087541;28;20233;-56
2021/11/09 01:52:29;;;;;;;33.80;21.13;;;;;;;;;;2085974;28;20208;-52
2021/11/09 01:53:30;;;;;;;33.75;20.35;;;;;;;;;;2089642;28;20176;-55
2021/11/09 01:54:31;;;;;;;29.42;19.92;;;;;;;;;;2084697;28;20265;-55
2021/11/09 01:55:32;;;;;;;32.67;20.88;;;;;;;;;;2087359;28;20309;-56
2021/11/09 01:56:33;;;;;;;34.17;20.55;;;;;;;;;;2090166;28;20179;-54
2021/11/09 01:57:33;;;;;;;32.38;21.38;;;;;;;;;;2085998;28;20263;-55
2021/11/09 01:58:34;;;;;;;37.00;21.75;;;;;;;;;;2086980;28;20614;-53
2021/11/09 01:59:34;;;;;;;33.72;20.35;;;;;;;;;;2086062;28;20202;-53
2021/11/09 02:00:38;;;;;;;38.47;21.38;;;;;;;;;;2086605;28;20707;-54
2021/11/09 02:01:38;;;;;;;35.05;21.88;;;;;;;;;;2088411;28;20179;-55
2021/11/09 02:02:38;;;;;;;35.80;22.05;;;;;;;;;;2089823;28;20540;-54
2021/11/09 02:03:41;;;;;;;29.55;20.52;;;;;;;;;;2085726;28;20183;-54
2021/11/09 02:04:41;;;;;;;37.38;21.50;;;;;;;;;;2081449;28;20160;-55
2021/11/09 02:05:42;;;;;;;37.35;21.98;;;;;;;;;;2087955;28;20220;-55
2021/11/09 02:06:42;;;;;;;33.88;22.30;;;;;;;;;;2089938;28;20250;-55
2021/11/09 02:07:47;;;;;;;33.65;21.92;;;;;;;;;;2090265;28;20250;-52
2021/11/09 02:08:48;;;;;;;30.33;20.75;;;;;;;;;;2095317;28;20618;-54
2021/11/09 02:09:48;;;;;;;34.50;21.30;;;;;;;;;;2095881;28;20163;-52
2021/11/09 02:10:49;;;;;;;32.00;22.48;;;;;;;;;;2095268;28;20749;-53
2021/11/09 02:11:50;;;;;;;35.88;23.25;;;;;;;;;;2092344;28;20245;-53
2021/11/09 02:12:50;;;;;;;32.40;22.30;;;;;;;;;;2090952;28;20278;-55
2021/11/09 02:13:50;;;;;;;31.90;22.38;;;;;;;;;;2090391;28;20199;-54
2021/11/09 02:14:51;;;;;;;36.17;24.08;;;;;;;;;;2089958;28;20172;-52
2021/11/09 02:15:51;;;;;;;39.63;24.17;;;;;;;;;;2089624;28;20251;-53
2021/11/09 02:16:52;;;;;;;33.33;24.48;;;;;;;;;;2090558;28;20534;-52
2021/11/09 02:17:52;;;;;;;35.95;23.58;;;;;;;;;;2090357;28;20218;-52
2021/11/09 02:18:53;;;;;;;40.53;24.42;;;;;;;;;;2089858;28;20750;-54
2021/11/09 02:19:53;;;;;;;33.72;23.40;;;;;;;;;;2084246;28;20169;-53
2021/11/09 02:20:59;;;;;;;40.88;22.95;;;;;;;;;;2087612;28;20195;-53
2021/11/09 02:21:59;;;;;;;40.03;23.90;;;;;;;;;;2081474;28;20206;-52
2021/11/09 02:23:00;;;;;;;36.92;23.92;;;;;;;;;;2089734;28;20176;-52
2021/11/09 02:24:00;;;;;;;33.72;22.55;;;;;;;;;;2089909;28;20624;-52
2021/11/09 02:25:06;;;;;;;33.42;22.67;;;;;;;;;;2089333;28;20159;-53
2021/11/09 02:26:07;;;;;;;32.30;21.98;;;;;;;;;;2081575;28;20536;-55
2021/11/09 02:27:08;;;;;;;36.22;22.58;;;;;;;;;;2081361;28;20172;-52
2021/11/09 02:28:08;;;;;;;35.15;23.83;;;;;;;;;;2081355;28;20175;-52
2021/11/09 02:29:09;;;;;;;34.95;23.13;;;;;;;;;;2083339;28;20234;-53
2021/11/09 02:30:11;;;;;;;38.10;23.25;;;;;;;;;;2089559;28;20163;-55
2021/11/09 02:31:11;;;;;;;36.55;23.38;;;;;;;;;;2088750;28;20197;-55
2021/11/09 02:32:12;;;;;;;37.42;23.75;;;;;;;;;;2088558;28;20180;-55
2021/11/09 02:33:12;;;;;;;37.28;22.95;;;;;;;;;;2086763;28;20184;-54
2021/11/09 02:34:13;;;;;;;42.15;22.63;;;;;;;;;;2087669;28;20211;-53
2021/11/09 02:35:13;;;;;;;35.33;22.38;;;;;;;;;;2085414;28;20167;-57
2021/11/09 02:36:14;;;;;;;37.95;23.17;;;;;;;;;;2085386;28;20184;-56
2021/11/09 02:37:16;;;;;;;30.00;21.65;;;;;;;;;;2084661;28;20172;-53
2021/11/09 02:38:17;;;;;;;37.78;22.17;;;;;;;;;;2085535;28;20168;-55
2021/11/09 02:39:17;;;;;;;31.67;22.80;;;;;;;;;;2085976;28;20174;-54
2021/11/09 02:40:19;;;;;;;34.13;22.95;;;;;;;;;;2089097;28;20180;-55
2021/11/09 02:41:19;;;;;;;38.92;23.52;;;;;;;;;;2088586;28;20176;-53
2021/11/09 02:42:20;;;;;;;32.38;21.55;;;;;;;;;;2088308;28;20272;-55
2021/11/09 02:43:21;;;;;;;33.80;22.10;;;;;;;;;;2085183;28;20163;-56
2021/11/09 02:44:25;;;;;;;35.70;20.98;;;;;;;;;;2082064;28;20566;-56
2021/11/09 02:45:36;;;;;;;40.90;22.65;;;;;;;;;;2083689;28;20172;-56
2021/11/09 02:46:45;;;;;;;33.95;21.15;;;;;;;;;;2087829;28;20594;-56
2021/11/09 02:47:54;;;;;;;33.17;20.88;;;;;;;;;;2086649;28;20179;-54
2021/11/09 02:49:05;;;;;;;37.10;21.90;;;;;;;;;;2080964;28;20208;-56
2021/11/09 02:50:10;;;;;;;33.88;21.85;;;;;;;;;;2084240;28;20296;-54
2021/11/09 02:51:14;;;;;;;33.67;21.30;;;;;;;;;;2082719;28;20195;-56
2021/11/09 02:52:15;;;;;;;39.80;24.02;;;;;;;;;;2084996;28;20164;-55
2021/11/09 02:53:37;;;;;;;38.03;23.85;;;;;;;;;;2083136;28;20195;-54
2021/11/09 02:54:41;;;;;;;41.47;23.58;;;;;;;;;;2084801;28;20624;-54
2021/11/09 02:55:46;;;;;;;32.70;23.17;;;;;;;;;;2088565;28;20184;-55
2021/11/09 02:56:59;;;;;;;40.75;24.55;;;;;;;;;;2081170;28;20176;-53
2021/11/09 02:58:25;;;;;;;39.70;24.15;;;;;;;;;;2085869;28;20677;-54
2021/11/09 03:00:37;;;;;;;42.33;24.42;;;;;;;;;;2083426;28;20176;-53
2021/11/09 03:01:42;;;;;;;41.13;25.83;;;;;;;;;;2087846;28;20176;-52
2021/11/09 03:02:48;;;;;;;39.75;24.52;;;;;;;;;;2088310;28;20229;-54
2021/11/09 03:06:31;;;;;;;44.47;24.48;;;;;;;;;;2090334;28;20167;-52
2021/11/09 03:07:37;;;;;;;42.47;24.48;;;;;;;;;;2087627;28;20230;-52
2021/11/09 03:08:43;;;;;;;34.03;23.27;;;;;;;;;;2082915;28;20222;-55
2021/11/09 03:09:54;;;;;;;49.05;26.58;;;;;;;;;;2088458;28;20171;-54
2021/11/09 03:10:55;;;;;;;44.53;25.63;;;;;;;;;;2081690;28;20165;-55
2021/11/09 03:12:01;;;;;;;48.47;26.48;;;;;;;;;;2085895;28;20181;-53
2021/11/09 03:13:03;;;;;;;47.47;26.98;;;;;;;;;;2083598;28;20161;-52
2021/11/09 03:14:03;;;;;;;51.67;27.13;;;;;;;;;;2088969;28;20695;-52
2021/11/09 03:15:05;;;;;;;45.65;28.05;;;;;;;;;;2087359;28;20179;-51
2021/11/09 03:16:09;;;;;;;52.30;27.33;;;;;;;;;;2089707;28;20205;-54
2021/11/09 03:17:19;;;;;;;50.28;26.67;;;;;;;;;;2088002;28;20680;-53
2021/11/09 03:18:23;;;;;;;46.67;24.75;;;;;;;;;;2085091;28;20209;-52
2021/11/09 03:19:38;;;;;;;51.17;26.20;;;;;;;;;;2085714;28;20241;-55
2021/11/09 03:20:49;;;;;;;45.58;25.08;;;;;;;;;;2085690;28;20539;-53
2021/11/09 03:40:34;;;;;;;47.28;24.42;;;;;;;;;;2083019;28;20264;-54
2021/11/09 03:45:19;;;;;;;48.00;25.70;;;;;;;;;;2089416;28;20636;-54
2021/11/09 03:46:19;;;;;;;52.10;25.77;;;;;;;;;;2088225;28;20655;-53
2021/11/09 03:47:21;;;;;;;38.75;23.13;;;;;;;;;;2088486;28;20168;-51
2021/11/09 03:48:22;;;;;;;49.73;25.33;;;;;;;;;;2085477;28;20826;-53
2021/11/09 03:49:24;;;;;;;41.20;24.90;;;;;;;;;;2085824;28;20191;-55
2021/11/09 03:50:26;;;;;;;37.70;23.15;;;;;;;;;;2086765;28;20182;-53
2021/11/09 03:51:27;;;;;;;47.93;24.30;;;;;;;;;;2081007;28;20653;-53
2021/11/09 03:52:31;;;;;;;41.10;23.85;;;;;;;;;;2083263;28;20270;-55
2021/11/09 03:53:34;;;;;;;41.80;24.60;;;;;;;;;;2087467;28;20736;-55
2021/11/09 03:54:34;;;;;;;51.13;24.35;;;;;;;;;;2087115;28;20758;-56
2021/11/09 03:56:41;;;;;;;45.07;25.33;;;;;;;;;;2088477;28;20211;-55
2021/11/09 03:57:51;;;;;;;45.93;24.67;;;;;;;;;;2079214;28;20579;-55
2021/11/09 03:58:53;;;;;;;42.87;23.17;;;;;;;;;;2081337;28;20625;-53
2021/11/09 04:00:08;;;;;;;44.80;24.63;;;;;;;;;;2088713;28;20180;-54
2021/11/09 04:01:12;;;;;;;42.40;22.80;;;;;;;;;;2084346;28;20187;-54
2021/11/09 04:03:25;;;;;;;50.03;24.13;;;;;;;;;;2087888;28;20259;-54
2021/11/09 04:05:32;;;;;;;51.87;24.80;;;;;;;;;;2088220;28;20174;-52
2021/11/09 04:06:37;;;;;;;40.40;23.00;;;;;;;;;;2088845;28;20873;-55
2021/11/09 04:07:49;;;;;;;41.90;23.37;;;;;;;;;;2085627;28;20230;-56
2021/11/09 04:11:27;;;;;;;42.03;23.57;;;;;;;;;;2088404;28;20375;-53
2021/11/09 04:14:52;;;;;;;44.50;24.80;;;;;;;;;;2064272;28;20186;-52
2021/11/09 04:15:48;;;;;;;41.37;23.93;;;;;;;;;;2076384;28;20188;-52
2021/11/09 04:17:43;;;;;;;46.80;25.17;;;;;;;;;;2080073;28;20148;-56
2021/11/09 04:18:22;;;;;;;48.00;25.43;;;;;;;;;;2073014;28;20195;-54
2021/11/09 04:21:05;;;;;;;45.67;26.57;;;;;;;;;;2086595;28;20229;-54
2021/11/09 04:23:41;;;;;;;41.13;25.13;;;;;;;;;;2086306;28;20176;-54
2021/11/09 04:24:54;;;;;;;47.50;24.37;;;;;;;;;;2105616;23;20266;-60
2021/11/09 04:29:12;;;;;;;51.65;26.33;;;;;;;;;;2079734;28;20267;-60
2021/11/09 04:30:28;;;;;;;51.30;26.98;;;;;;;;;;2075457;28;20184;-61
2021/11/09 04:32:50;;;;;;;47.80;25.70;;;;;;;;;;2080221;28;20255;-63
2021/11/09 04:39:39;;;;;;;42.60;22.30;;;;;;;;;;2084024;28;20163;-63
2021/11/09 04:49:35;;;;;;;40.97;21.67;;;;;;;;;;2081181;28;20164;-64
2021/11/09 04:53:10;;;;;;;41.33;22.37;;;;;;;;;;2081014;28;20169;-61
2021/11/09 05:02:08;;;;;;;45.27;21.77;;;;;;;;;;2081460;28;20179;-61
2021/11/09 05:08:28;;;;;;;49.13;23.33;;;;;;;;;;2081548;28;20172;-62
2021/11/09 05:09:55;;;;;;;45.77;23.73;;;;;;;;;;2081303;28;20672;-62
2021/11/09 05:10:51;;;;;;;54.97;24.33;;;;;;;;;;2072879;28;20286;-61
2021/11/09 05:11:52;;;;;;;48.03;24.80;;;;;;;;;;2074290;28;20187;-60
2021/11/09 05:12:52;;;;;;;44.43;25.07;;;;;;;;;;2081093;28;20165;-62
2021/11/09 05:13:54;;;;;;;52.93;25.47;;;;;;;;;;2081865;28;20179;-61
2021/11/09 05:14:54;;;;;;;47.80;23.77;;;;;;;;;;2075910;28;20300;-60
2021/11/09 05:15:54;;;;;;;55.57;25.30;;;;;;;;;;2075746;28;20636;-60
2021/11/09 05:16:55;;;;;;;50.57;25.73;;;;;;;;;;2076327;28;20210;-62
2021/11/09 05:17:55;;;;;;;49.23;25.70;;;;;;;;;;2082159;28;20168;-63
2021/11/09 05:18:56;;;;;;;55.57;25.33;;;;;;;;;;2081555;28;20279;-61
2021/11/09 05:19:57;;;;;;;49.40;25.50;;;;;;;;;;2082398;28;20180;-60
2021/11/09 05:20:57;;;;;;;37.77;25.73;;;;;;;;;;2081526;28;20180;-63
2021/11/09 05:21:57;;;;;;;48.10;26.00;;;;;;;;;;2081792;28;20613;-62
2021/11/09 05:22:58;;;;;;;54.03;25.80;;;;;;;;;;2081019;28;20177;-63
2021/11/09 05:23:59;;;;;;;45.47;26.43;;;;;;;;;;2081623;28;20643;-62
2021/11/09 05:24:59;;;;;;;45.83;26.57;;;;;;;;;;2081460;28;20200;-63
2021/11/09 05:26:00;;;;;;;53.67;26.20;;;;;;;;;;2081609;28;20214;-63
2021/11/09 05:27:00;;;;;;;54.03;28.00;;;;;;;;;;2081562;28;20173;-63
2021/11/09 05:28:00;;;;;;;47.13;27.00;;;;;;;;;;2082313;28;20173;-63
2021/11/09 05:29:01;;;;;;;50.20;25.63;;;;;;;;;;2081957;28;20208;-60
2021/11/09 05:30:01;;;;;;;55.43;27.67;;;;;;;;;;2082285;28;20255;-63
2021/11/09 05:31:02;;;;;;;53.23;26.60;;;;;;;;;;2081583;28;20168;-61
2021/11/09 05:32:03;;;;;;;61.53;27.80;;;;;;;;;;2081935;28;20576;-59
2021/11/09 05:33:04;;;;;;;54.63;28.87;;;;;;;;;;2081277;28;20161;-62
2021/11/09 05:34:05;;;;;;;57.67;27.03;;;;;;;;;;2081623;28;20202;-61
2021/11/09 05:35:06;;;;;;;54.43;27.43;;;;;;;;;;2081606;28;20188;-62
2021/11/09 05:36:08;;;;;;;59.13;27.67;;;;;;;;;;2080632;28;20257;-62
2021/11/09 05:37:10;;;;;;;50.57;28.03;;;;;;;;;;2076992;28;20184;-63
2021/11/09 05:38:12;;;;;;;51.50;27.80;;;;;;;;;;2081929;28;20177;-61
2021/11/09 05:40:13;;;;;;;52.83;26.83;;;;;;;;;;2080851;28;20167;-63
2021/11/09 05:41:16;;;;;;;46.97;28.07;;;;;;;;;;2081324;28;20180;-63
2021/11/09 05:42:17;;;;;;;63.63;28.03;;;;;;;;;;2081347;28;20615;-63
2021/11/09 05:43:17;;;;;;;50.87;25.77;;;;;;;;;;2080938;28;20176;-60
2021/11/09 05:44:18;;;;;;;54.33;28.10;;;;;;;;;;2080168;28;20176;-61
2021/11/09 05:45:18;;;;;;;47.83;26.67;;;;;;;;;;2089326;28;20732;-63
2021/11/09 05:46:18;;;;;;;55.70;28.27;;;;;;;;;;2080810;28;20180;-61
2021/11/09 05:47:19;;;;;;;54.57;28.00;;;;;;;;;;2080747;28;20172;-63
2021/11/09 05:48:19;;;;;;;56.53;25.27;;;;;;;;;;2080837;28;20560;-63
2021/11/09 05:49:19;;;;;;;61.83;27.33;;;;;;;;;;2080747;28;20223;-61
2021/11/09 05:50:20;;;;;;;49.03;27.57;;;;;;;;;;2088846;28;20182;-62
2021/11/09 05:51:21;;;;;;;53.67;26.40;;;;;;;;;;2082189;28;20173;-64
2021/11/09 05:52:21;;;;;;;57.27;28.37;;;;;;;;;;2082188;28;20208;-62
2021/11/09 05:53:21;;;;;;;55.33;28.97;;;;;;;;;;2081988;28;20184;-62
2021/11/09 05:54:22;;;;;;;57.73;29.63;;;;;;;;;;2081361;28;20323;-60
2021/11/09 05:55:22;;;;;;;52.47;26.83;;;;;;;;;;2082092;28;20192;-61
2021/11/09 05:56:22;;;;;;;50.83;26.83;;;;;;;;;;2082005;28;20175;-63
2021/11/09 05:57:23;;;;;;;53.07;28.03;;;;;;;;;;2082168;28;20214;-62
2021/11/09 05:58:23;;;;;;;60.50;27.33;;;;;;;;;;2081414;28;20187;-61
2021/11/09 05:59:23;;;;;;;55.73;28.40;;;;;;;;;;2081292;28;20222;-62
2021/11/09 06:00:23;;;;;;;57.13;27.90;;;;;;;;;;2080885;28;20236;-63
2021/11/09 06:01:24;;;;;;;55.23;28.57;;;;;;;;;;2081026;28;20306;-63
2021/11/09 06:02:24;;;;;;;49.73;27.60;;;;;;;;;;2081107;28;20194;-63
2021/11/09 06:03:25;;;;;;;62.70;27.33;;;;;;;;;;2080711;28;20195;-62
2021/11/09 06:04:26;;;;;;;46.00;25.20;;;;;;;;;;2081495;28;20176;-63
2021/11/09 06:05:26;;;;;;;47.77;27.00;;;;;;;;;;2080831;28;20556;-65
2021/11/09 06:06:27;;;;;;;52.47;28.17;;;;;;;;;;2081132;28;20215;-60
2021/11/09 06:07:27;;;;;;;55.63;26.97;;;;;;;;;;2081396;28;20179;-62
2021/11/09 06:08:27;;;;;;;51.60;26.63;;;;;;;;;;2081107;28;20248;-62
2021/11/09 06:09:28;;;;;;;57.13;25.37;;;;;;;;;;2081344;28;20246;-61
2021/11/09 06:10:28;;;;;;;47.50;25.80;;;;;;;;;;2079893;28;20176;-64
2021/11/09 06:11:29;;;;;;;55.17;26.77;;;;;;;;;;2080824;28;20172;-60
2021/11/09 06:12:29;;;;;;;53.87;24.57;;;;;;;;;;2081586;28;20699;-60
2021/11/09 06:13:29;;;;;;;46.13;25.37;;;;;;;;;;2081730;28;20180;-63
2021/11/09 06:14:29;;;;;;;51.77;26.93;;;;;;;;;;2081387;28;20176;-61
2021/11/09 06:15:30;;;;;;;51.87;25.00;;;;;;;;;;2080653;28;20257;-63
2021/11/09 06:16:30;;;;;;;58.87;26.77;;;;;;;;;;2080684;28;20687;-63
2021/11/09 06:17:30;;;;;;;49.27;24.53;;;;;;;;;;2081468;28;20172;-62
2021/11/09 06:18:31;;;;;;;56.30;25.17;;;;;;;;;;2079676;28;20180;-64
2021/11/09 06:19:31;;;;;;;51.73;27.07;;;;;;;;;;2080731;28;20774;-64
2021/11/09 06:20:32;;;;;;;53.63;26.03;;;;;;;;;;2081029;28;20259;-63
2021/11/09 06:21:33;;;;;;;50.53;26.13;;;;;;;;;;2081104;28;20187;-63
2021/11/09 06:22:34;;;;;;;45.00;26.07;;;;;;;;;;2081560;28;20225;-62
2021/11/09 06:23:34;;;;;;;48.53;25.37;;;;;;;;;;2081541;28;20646;-62
2021/11/09 06:24:35;;;;;;;44.80;25.33;;;;;;;;;;2081368;28;20184;-63
2021/11/09 06:25:35;;;;;;;59.73;24.90;;;;;;;;;;2081524;28;20233;-63
2021/11/09 06:26:35;;;;;;;58.30;26.33;;;;;;;;;;2081750;28;20198;-61
2021/11/09 06:27:36;;;;;;;49.90;26.40;;;;;;;;;;2081672;28;20667;-63
2021/11/09 06:28:37;;;;;;;56.40;26.00;;;;;;;;;;2081634;28;20179;-61
2021/11/09 06:29:38;;;;;;;54.83;26.43;;;;;;;;;;2080938;28;20335;-62
2021/11/09 06:30:38;;;;;;;59.17;27.30;;;;;;;;;;2081126;28;20226;-63
2021/11/09 06:31:40;;;;;;;69.37;30.37;;;;;;;;;;2081237;28;20648;-61
2021/11/09 06:32:40;;;;;;;54.03;27.97;;;;;;;;;;2081433;28;20239;-61
2021/11/09 06:33:40;;;;;;;63.17;27.27;;;;;;;;;;2081624;28;20219;-62
2021/11/09 06:34:41;;;;;;;58.03;26.37;;;;;;;;;;2081674;28;20182;-58
2021/11/09 06:35:41;;;;;;;64.67;25.90;;;;;;;;;;2081705;28;20188;-63
2021/11/09 06:36:41;;;;;;;58.67;25.40;;;;;;;;;;2083005;28;20199;-60
2021/11/09 06:37:42;;;;;;;44.83;25.20;;;;;;;;;;2084200;28;20577;-63
2021/11/09 06:38:42;;;;;;;53.87;24.83;;;;;;;;;;2081440;28;20180;-62
2021/11/09 06:39:42;;;;;;;50.33;26.43;;;;;;;;;;2081609;28;20176;-61
2021/11/09 06:40:43;;;;;;;54.20;25.77;;;;;;;;;;2081451;28;20649;-61
2021/11/09 06:41:44;;;;;;;45.03;25.13;;;;;;;;;;2080812;28;20195;-58
2021/11/09 06:42:44;;;;;;;53.17;25.57;;;;;;;;;;2081380;28;20181;-61
2021/11/09 06:43:44;;;;;;;47.50;25.97;;;;;;;;;;2081750;28;20180;-61
2021/11/09 06:44:45;;;;;;;47.50;25.30;;;;;;;;;;2080861;28;20172;-61
2021/11/09 06:45:46;;;;;;;53.17;26.17;;;;;;;;;;2080777;28;20181;-59
2021/11/09 06:46:46;;;;;;;50.03;26.43;;;;;;;;;;2081328;28;20190;-63
2021/11/09 06:47:48;;;;;;;52.40;25.90;;;;;;;;;;2081661;28;20665;-64
2021/11/09 06:48:48;;;;;;;49.77;25.23;;;;;;;;;;2073564;28;20645;-61
2021/11/09 06:49:49;;;;;;;50.10;26.00;;;;;;;;;;2088467;28;20237;-62
2021/11/09 06:50:49;;;;;;;42.30;25.00;;;;;;;;;;2080183;28;20233;-60
2021/11/09 06:51:50;;;;;;;48.20;24.07;;;;;;;;;;2072975;28;20169;-62
2021/11/09 06:52:50;;;;;;;47.83;23.43;;;;;;;;;;2080694;28;20227;-58
2021/11/09 06:53:51;;;;;;;41.73;24.20;;;;;;;;;;2080679;28;20267;-61
2021/11/09 06:54:51;;;;;;;53.90;25.50;;;;;;;;;;2080522;28;20196;-62
2021/11/09 06:55:51;;;;;;;52.53;25.17;;;;;;;;;;2088644;28;20245;-61
2021/11/09 06:56:52;;;;;;;46.93;24.43;;;;;;;;;;2088811;28;20250;-58
2021/11/09 06:57:52;;;;;;;51.97;25.37;;;;;;;;;;2080596;28;20176;-63
2021/11/09 06:58:53;;;;;;;45.57;24.30;;;;;;;;;;2079835;28;20190;-61
2021/11/09 06:59:53;;;;;;;49.87;26.47;;;;;;;;;;2078645;28;20270;-63
2021/11/09 07:00:53;;;;;;;48.67;24.37;;;;;;;;;;2080618;28;20208;-62
2021/11/09 07:01:53;;;;;;;51.00;24.80;;;;;;;;;;2080947;28;20184;-64
2021/11/09 07:02:54;;;;;;;48.27;25.30;;;;;;;;;;2080189;28;20229;-61
2021/11/09 07:03:54;;;;;;;50.50;25.67;;;;;;;;;;2081005;28;20178;-63
2021/11/09 07:04:54;;;;;;;50.87;24.77;;;;;;;;;;2081705;28;20282;-62
2021/11/09 07:05:55;;;;;;;47.10;25.27;;;;;;;;;;2079835;28;20172;-64
2021/11/09 07:06:55;;;;;;;56.87;27.03;;;;;;;;;;2080680;28;20180;-66
2021/11/09 07:07:56;;;;;;;58.73;26.20;;;;;;;;;;2081026;28;20230;-64
2021/11/09 07:08:56;;;;;;;49.83;24.23;;;;;;;;;;2081034;28;20211;-62
2021/11/09 07:09:56;;;;;;;45.30;24.63;;;;;;;;;;2080603;28;20168;-65
2021/11/09 07:10:57;;;;;;;45.57;23.43;;;;;;;;;;2080922;28;20164;-63
2021/11/09 07:11:57;;;;;;;54.80;24.87;;;;;;;;;;2080031;28;20191;-62
2021/11/09 07:12:57;;;;;;;47.67;23.73;;;;;;;;;;2081244;28;20168;-63